Nearby METAR Reports

KBIS - Bismarck, North Dakota, USA
Distance from station: S 10mi, 15km
Updated: Mon, 30-Jan-2023 10:52am CST
Clear
Clear
 Wind from WSW
Wind: WSW 9 mph , 15 km/h
Temperature: -6°F , -21°C
Wind Chill: -22°F , -30°C
Dew Point: -17°F , -27°C
Humidity: 59%
Barometer: 30.34 inHg , 1027.4 hPa
Clouds: Clear
Visibility: 10 miles , 16 km
2023/01/30 16:52 KBIS 301652Z 24008KT 10SM CLR M21/M27 A3034 RMK AO2 SLP329 T12111272
KDIK - Dickinson, North Dakota, USA
Distance from station: W 95mi, 154km
Updated: Mon, 30-Jan-2023 10:56am CST
Clear
Clear
 Wind from SSW
Wind: SSW 15 mph , 24 km/h
Temperature: -8°F , -22°C
Wind Chill: -30°F , -34°C
Dew Point: -15°F , -26°C
Humidity: 70%
Barometer: 30.14 inHg , 1020.7 hPa
Clouds: Clear
Visibility: 10 miles , 16 km
2023/01/30 16:56 KDIK 301656Z AUTO 21013KT 10SM CLR M22/M26 A3014 RMK AO2 SLP287 T12171261
 
KGFK - Grand Forks, North Dakota, USA
Distance from station: NNW 76mi, 123km
Updated: Mon, 30-Jan-2023 10:53am CST
Few Clouds
Few Clouds
 Wind from SW
Wind: SW 9 mph , 15 km/h
Temperature: -13°F , -25°C
Wind Chill: -31°F , -35°C
Dew Point: -20°F , -29°C
Humidity: 69%
Barometer: 30.36 inHg , 1028.1 hPa
Clouds: Few Clouds
Visibility: 10 miles , 16 km
Cloud details: Few Clouds 7000 ft
Few Clouds 22000 ft
2023/01/30 16:53 KGFK 301653Z 22008KT 10SM FEW070 FEW220 M25/M29 A3036 RMK AO2 SLP315 T12501294
KXWA - Williston, North Dakota, USA
Distance from station: NNW 2mi, 2km
Updated: Mon, 30-Jan-2023 10:51am CST
Mostly cloudy
Mostly cloudy
 Wind from SSW
Wind: SSW 16 mph , 26 km/h
Temperature: -9°F , -23°C
Wind Chill: -32°F , -36°C
Dew Point: -15°F , -26°C
Humidity: 77%
Barometer: 30.11 inHg , 1019.6 hPa
Clouds: Mostly cloudy
Visibility: 10 miles , 16 km
Cloud details: Mostly cloudy 10000 ft
2023/01/30 16:51 KXWA 301651Z AUTO 20014KT 10SM BKN100 M23/M26 A3011 RMK AO2 SLP289 T12281256
 
KFAR - Fargo, North Dakota, USA
Distance from station: NNW 4mi, 7km
Updated: Mon, 30-Jan-2023 10:53am CST
Clear
Clear
 Wind from WSW
Wind: WSW 13 mph , 20 km/h
Temperature: -11°F , -24°C
Wind Chill: -32°F , -36°C
Dew Point: -18°F , -28°C
Humidity: 70%
Barometer: 30.43 inHg , 1030.5 hPa
Clouds: Clear
Visibility: 10 miles , 16 km
2023/01/30 16:53 KFAR 301653Z 24011KT 10SM CLR M24/M28 A3043 RMK AO2 SLP340 T12441283
KMOT - Minot, North Dakota, USA
Distance from station: E 109mi, 175km
Updated: Mon, 30-Jan-2023 10:54am CST
Mostly cloudy
Mostly cloudy
 Wind from SSW
Wind: SSW 15 mph , 24 km/h
Temperature: -6°F , -21°C
Wind Chill: -27°F , -33°C
Dew Point: -15°F , -26°C
Humidity: 64%
Barometer: 30.21 inHg , 1023 hPa
Clouds: Mostly cloudy
Visibility: 10 miles , 16 km
Cloud details: Mostly cloudy 11000 ft
2023/01/30 16:54 KMOT 301654Z 20013KT 10SM BKN110 M21/M26 A3021 RMK AO2 SLP287 T12111261